Terminal Aerodrome Forecast
Issued by NWS Charleston, WV

Home | Current Version | Previous Version | Text Only | Print | Product List | Glossary On
Versions: 1 2 3 4 5 6 7 8 9 10 11 12 13 14 15 16 17 18 19 20 21 22
000
FTUS41 KRLX 190200 AAA
TAFHTS
TAF AMD
KHTS 190212Z 1902/1924 06006KT P6SM SKC
     FM190900 09007KT P6SM BKN050
     FM191100 11012G18KT P6SM OVC040
     FM191300 11013G23KT 6SM -SHRA OVC035
     FM191500 11012G22KT 4SM SHRA BR OVC024
     FM192100 14014G20KT P6SM VCTS BKN030CB=

USA.gov is the U.S. government's official web portal to all federal, state and local government web resources and services.